Time;durP1;ratioP1;P1;durP2;ratioP2;P2;SDS_P1;SDS_P2;PMS_P1;PMS_P2;Temp;Humidity;BMP_temperature;BMP_pressure;BME280_temperature;BME280_humidity;BME280_pressure;Samples;Min_cycle;Max_cycle;Signal;HPM_P1;HPM_P2
2023/07/13 00:01:49;;;;;;;;;;;;;;;-140.72;100.00;52492.31;4991685;28;20280;-70
2023/07/13 00:04:16;;;;;;;;;;;;;;;-140.72;100.00;52512.59;4990280;28;19926;-70
2023/07/13 00:06:44;;;;;;;;;;;;;;;-140.72;100.00;52502.47;4989343;28;20041;-70
2023/07/13 00:09:10;;;;;;;;;;;;;;;-140.72;100.00;52488.25;4993440;28;19922;-69
2023/07/13 00:11:35;;;;;;;;;;;;;;;-140.72;100.00;52526.81;4975776;28;19937;-69
2023/07/13 00:14:01;;;;;;;;;;;;;;;-140.72;100.00;52504.50;4994033;28;19972;-69
2023/07/13 00:16:26;;;;;;;;;;;;;;;-140.72;100.00;52539.00;4988448;28;20341;-69
2023/07/13 00:18:52;;;;;;;;;;;;;;;-140.72;100.00;52498.41;4970587;28;19965;-70
2023/07/13 00:21:17;;;;;;;;;;;;;;;-140.72;100.00;52502.47;4992631;28;19972;-69
2023/07/13 00:23:43;;;;;;;;;;;;;;;-140.72;100.00;52530.88;4988237;28;19964;-69
2023/07/13 00:26:09;;;;;;;;;;;;;;;-140.72;100.00;52539.00;4986422;28;19926;-70
2023/07/13 00:28:35;;;;;;;;;;;;;;;-140.72;100.00;52510.59;4983612;28;20246;-69
2023/07/13 00:31:00;;;;;;;;;;;;;;;-140.72;100.00;52480.16;4993375;28;19932;-69
2023/07/13 00:33:27;;;;;;;;;;;;;;;-140.72;100.00;52498.41;4989972;28;20368;-69
2023/07/13 00:35:53;;;;;;;;;;;;;;;-140.72;100.00;52480.16;4992063;28;19944;-69
2023/07/13 00:38:19;;;;;;;;;;;;;;;-140.72;100.00;52472.03;4988063;28;20039;-69
2023/07/13 00:40:44;;;;;;;;;;;;;;;-140.72;100.00;52514.63;4989348;28;19921;-68
2023/07/13 00:43:22;;;;;;;;;;;;;;;-140.72;100.00;52526.81;4992926;28;19928;-69
2023/07/13 00:45:48;;;;;;;;;;;;;;;-140.72;100.00;52508.56;4993119;28;19929;-69
2023/07/13 00:48:15;;;;;;;;;;;;;;;-140.72;100.00;52551.16;4971237;28;19997;-69
2023/07/13 00:50:41;;;;;;;;;;;;;;;-140.72;100.00;52520.72;4988656;28;20348;-69
2023/07/13 00:53:07;;;;;;;;;;;;;;;-140.72;100.00;52516.66;4989342;28;20017;-69
2023/07/13 00:55:33;;;;;;;;;;;;;;;-140.72;100.00;52545.06;4970155;28;19967;-69
2023/07/13 00:57:58;;;;;;;;;;;;;;;-140.72;100.00;52549.13;4986909;28;19921;-69
2023/07/13 01:00:25;;;;;;;;;;;;;;;-140.72;100.00;52472.03;4987375;28;19968;-69
2023/07/13 01:02:51;;;;;;;;;;;;;;;-140.72;100.00;52512.59;4989596;28;19936;-69
2023/07/13 01:05:18;;;;;;;;;;;;;;;-140.72;100.00;52518.69;4988517;28;20363;-69
2023/07/13 01:07:44;;;;;;;;;;;;;;;-140.72;100.00;52504.50;4982022;28;20755;-69
2023/07/13 01:10:10;;;;;;;;;;;;;;;-140.72;100.00;52543.03;4975376;28;19921;-69
2023/07/13 01:12:35;;;;;;;;;;;;;;;-140.72;100.00;52486.22;4992002;28;19954;-69
2023/07/13 01:15:01;;;;;;;;;;;;;;;-140.72;100.00;52510.59;4989854;28;19922;-69
2023/07/13 01:17:28;;;;;;;;;;;;;;;-140.72;100.00;52534.94;4991397;28;20008;-70
2023/07/13 01:19:53;;;;;;;;;;;;;;;-140.72;100.00;52520.72;4991580;28;19922;-69
2023/07/13 01:22:19;;;;;;;;;;;;;;;-140.72;100.00;52504.50;4988125;28;19929;-69
2023/07/13 01:24:46;;;;;;;;;;;;;;;-140.72;100.00;52532.91;4989419;28;20308;-70
2023/07/13 01:27:13;;;;;;;;;;;;;;;-140.72;100.00;52500.44;4993541;28;19922;-69
2023/07/13 01:29:43;;;;;;;;;;;;;;;-140.72;100.00;52498.41;4996787;28;20036;-69
2023/07/13 01:32:09;;;;;;;;;;;;;;;-140.72;100.00;52526.81;4990936;28;19968;-69
2023/07/13 01:34:35;;;;;;;;;;;;;;;-140.72;100.00;52506.53;4981266;28;19929;-69
2023/07/13 01:37:00;;;;;;;;;;;;;;;-140.72;100.00;52553.19;4992596;28;20370;-70
2023/07/13 01:39:25;;;;;;;;;;;;;;;-140.72;100.00;52532.91;4993223;28;19922;-69
2023/07/13 01:41:50;;;;;;;;;;;;;;;-140.72;100.00;52518.69;4986298;28;19930;-69
2023/07/13 01:44:16;;;;;;;;;;;;;;;-140.72;100.00;52504.50;4971737;28;19922;-70
2023/07/13 01:46:41;;;;;;;;;;;;;;;-140.72;100.00;52536.97;4989528;28;21705;-69
2023/07/13 01:49:06;;;;;;;;;;;;;;;-140.72;100.00;52524.78;4989076;28;19926;-69
2023/07/13 01:51:32;;;;;;;;;;;;;;;-140.72;100.00;52496.38;4985305;28;20028;-69
2023/07/13 01:53:57;;;;;;;;;;;;;;;-140.72;100.00;52530.88;4987472;28;19972;-69
2023/07/13 01:56:22;;;;;;;;;;;;;;;-140.72;100.00;52522.75;4988719;28;20005;-69
2023/07/13 01:58:47;;;;;;;;;;;;;;;-140.72;100.00;52518.69;4984383;28;19928;-68
2023/07/13 02:01:13;;;;;;;;;;;;;;;-140.72;100.00;52520.72;4984974;28;19968;-69
2023/07/13 02:03:38;;;;;;;;;;;;;;;-140.72;100.00;52528.84;4969424;28;20420;-69
2023/07/13 02:06:06;;;;;;;;;;;;;;;-140.72;100.00;52530.88;4971078;28;19933;-69
2023/07/13 02:08:34;;;;;;;;;;;;;;;-140.72;100.00;52532.91;4991280;28;19932;-69
2023/07/13 02:11:02;;;;;;;;;;;;;;;-140.72;100.00;52500.44;4968381;28;19922;-69
2023/07/13 02:13:27;;;;;;;;;;;;;;;-140.72;100.00;52555.22;4992262;28;20011;-69
2023/07/13 02:15:52;;;;;;;;;;;;;;;-140.72;100.00;52539.00;4985698;28;19961;-69
2023/07/13 02:18:18;;;;;;;;;;;;;;;-140.72;100.00;52567.41;4983976;28;19922;-69
2023/07/13 02:20:43;;;;;;;;;;;;;;;-140.72;100.00;52567.41;4970744;28;21377;-69
2023/07/13 02:23:09;;;;;;;;;;;;;;;-140.72;100.00;52551.16;4991979;28;19937;-69
2023/07/13 02:25:34;;;;;;;;;;;;;;;-140.72;100.00;52565.38;4988325;28;19929;-70
2023/07/13 02:27:59;;;;;;;;;;;;;;;-140.72;100.00;52541.03;4982821;28;19944;-69
2023/07/13 02:30:25;;;;;;;;;;;;;;;-140.72;100.00;52541.03;4984032;28;19926;-69
2023/07/13 02:32:50;;;;;;;;;;;;;;;-140.72;100.00;52549.13;4985965;28;20302;-68
2023/07/13 02:35:18;;;;;;;;;;;;;;;-140.72;100.00;52585.66;4981992;28;19926;-69
2023/07/13 02:37:43;;;;;;;;;;;;;;;-140.72;100.00;52532.91;4981949;28;19926;-69
2023/07/13 02:40:08;;;;;;;;;;;;;;;-140.72;100.00;52551.16;4987346;28;19937;-69
2023/07/13 02:42:34;;;;;;;;;;;;;;;-140.72;100.00;52541.03;4988470;28;20020;-69
2023/07/13 02:44:59;;;;;;;;;;;;;;;-140.72;100.00;52549.13;4983874;28;19968;-69
2023/07/13 02:47:26;;;;;;;;;;;;;;;-140.72;100.00;52536.97;4990838;28;20333;-69
2023/07/13 02:49:51;;;;;;;;;;;;;;;-140.72;100.00;52551.16;4991932;28;19926;-69
2023/07/13 02:52:18;;;;;;;;;;;;;;;-140.72;100.00;52520.72;4987854;28;19933;-69
2023/07/13 02:54:43;;;;;;;;;;;;;;;-140.72;100.00;52589.72;4969221;28;20013;-69
2023/07/13 02:57:08;;;;;;;;;;;;;;;-140.72;100.00;52555.22;4970793;28;20009;-70
2023/07/13 02:59:34;;;;;;;;;;;;;;;-140.72;100.00;52534.94;4972674;28;19981;-69
2023/07/13 03:02:00;;;;;;;;;;;;;;;-140.72;100.00;52549.13;4987303;28;20372;-70
2023/07/13 03:04:25;;;;;;;;;;;;;;;-140.72;100.00;52553.19;4990181;28;19922;-70
2023/07/13 03:06:51;;;;;;;;;;;;;;;-140.72;100.00;52532.91;4988055;28;19925;-69
2023/07/13 03:09:16;;;;;;;;;;;;;;;-140.72;100.00;52567.41;4988422;28;19921;-70
2023/07/13 03:11:41;;;;;;;;;;;;;;;-140.72;100.00;52516.66;4990541;28;19918;-70
2023/07/13 03:14:07;;;;;;;;;;;;;;;-140.72;100.00;52547.09;4999713;28;19922;-70
2023/07/13 03:16:33;;;;;;;;;;;;;;;-140.72;100.00;52577.53;5000941;28;19957;-70
2023/07/13 03:18:58;;;;;;;;;;;;;;;-140.72;100.00;52571.47;4992429;28;19922;-70
2023/07/13 03:21:23;;;;;;;;;;;;;;;-140.72;100.00;52597.84;4978125;28;20356;-70
2023/07/13 03:23:48;;;;;;;;;;;;;;;-140.72;100.00;52587.69;4991829;28;19922;-69
2023/07/13 03:26:19;;;;;;;;;;;;;;;-140.72;100.00;52555.22;4979631;28;20391;-70
2023/07/13 03:28:44;;;;;;;;;;;;;;;-140.72;100.00;52547.09;4977094;28;19930;-69
2023/07/13 03:31:14;;;;;;;;;;;;;;;-140.72;100.00;52551.16;4987982;28;19922;-69
2023/07/13 03:33:39;;;;;;;;;;;;;;;-140.72;100.00;52545.06;4992442;28;19918;-70
2023/07/13 03:36:06;;;;;;;;;;;;;;;-140.72;100.00;52536.97;4992455;28;19929;-70
2023/07/13 03:38:31;;;;;;;;;;;;;;;-140.72;100.00;52504.50;4993048;28;20314;-70
2023/07/13 03:40:57;;;;;;;;;;;;;;;-140.72;100.00;52565.38;4994756;28;19928;-69
2023/07/13 03:43:22;;;;;;;;;;;;;;;-140.72;100.00;52555.22;4990929;28;19922;-70
2023/07/13 03:45:47;;;;;;;;;;;;;;;-140.72;100.00;52557.25;4986585;28;19918;-70
2023/07/13 03:48:13;;;;;;;;;;;;;;;-140.72;100.00;52555.22;4988140;28;19926;-70
2023/07/13 03:50:39;;;;;;;;;;;;;;;-140.72;100.00;52549.13;4993123;28;19921;-69
2023/07/13 03:53:04;;;;;;;;;;;;;;;-140.72;100.00;52500.44;4987124;28;19922;-70
2023/07/13 03:55:30;;;;;;;;;;;;;;;-140.72;100.00;52557.25;4991487;28;20028;-69
2023/07/13 03:58:00;;;;;;;;;;;;;;;-140.72;100.00;52593.78;4989393;28;19922;-70
2023/07/13 04:00:26;;;;;;;;;;;;;;;-140.72;100.00;52520.72;4973221;28;20368;-70
2023/07/13 04:02:51;;;;;;;;;;;;;;;-140.72;100.00;52539.00;4976507;28;19964;-69
2023/07/13 04:05:16;;;;;;;;;;;;;;;-140.72;100.00;52587.69;4967081;28;19954;-71
2023/07/13 04:07:42;;;;;;;;;;;;;;;-140.72;100.00;52573.50;4990835;28;19957;-71
2023/07/13 04:10:07;;;;;;;;;;;;;;;-140.72;100.00;52565.38;4992936;28;19986;-73
2023/07/13 04:12:33;;;;;;;;;;;;;;;-140.72;100.00;52571.47;4985079;28;19926;-73
2023/07/13 04:15:21;;;;;;;;;;;;;;;-140.72;100.00;52530.88;4992576;28;19921;-72
2023/07/13 04:17:46;;;;;;;;;;;;;;;-140.72;100.00;52528.84;4991946;28;20005;-73
2023/07/13 04:20:12;;;;;;;;;;;;;;;-140.72;100.00;52524.78;4988282;28;20013;-72
2023/07/13 04:22:37;;;;;;;;;;;;;;;-140.72;100.00;52561.31;4969247;28;20024;-71
2023/07/13 04:25:05;;;;;;;;;;;;;;;-140.72;100.00;52532.91;4986266;28;20429;-73
2023/07/13 04:27:30;;;;;;;;;;;;;;;-140.72;100.00;52567.41;4987763;28;20387;-73
2023/07/13 04:29:55;;;;;;;;;;;;;;;-140.72;100.00;52589.72;4993599;28;19976;-73
2023/07/13 04:32:20;;;;;;;;;;;;;;;-140.72;100.00;52567.41;4991377;28;19930;-72
2023/07/13 04:34:46;;;;;;;;;;;;;;;-140.72;100.00;52530.88;4963825;28;20395;-73
2023/07/13 04:37:11;;;;;;;;;;;;;;;-140.72;100.00;52561.31;4976338;28;19922;-74
2023/07/13 04:39:47;;;;;;;;;;;;;;;-140.72;100.00;52504.50;4986540;28;19966;-73
2023/07/13 04:42:12;;;;;;;;;;;;;;;-140.72;100.00;52541.03;4981740;28;19929;-73
2023/07/13 04:44:56;;;;;;;;;;;;;;;-140.72;100.00;52561.31;4989444;28;19922;-73
2023/07/13 04:47:22;;;;;;;;;;;;;;;-140.72;100.00;52547.09;4979398;28;19921;-73
2023/07/13 04:49:47;;;;;;;;;;;;;;;-140.72;100.00;52559.28;4968333;28;19922;-78
2023/07/13 04:52:12;;;;;;;;;;;;;;;-140.72;100.00;52545.06;4977544;28;19926;-74
2023/07/13 04:54:38;;;;;;;;;;;;;;;-140.72;100.00;52563.34;4974104;28;20017;-70
2023/07/13 04:57:07;;;;;;;;;;;;;;;-140.72;100.00;52573.50;4994083;28;20279;-73
2023/07/13 04:59:41;;;;;;;;;;;;;;;-140.72;100.00;52536.97;4976916;28;19922;-73
2023/07/13 05:02:06;;;;;;;;;;;;;;;-140.72;100.00;52553.19;4998090;28;19925;-73
2023/07/13 05:04:32;;;;;;;;;;;;;;;-140.72;100.00;52539.00;4983823;28;20324;-72
2023/07/13 05:06:57;;;;;;;;;;;;;;;-140.72;100.00;52492.31;4994483;28;19925;-73
2023/07/13 05:09:22;;;;;;;;;;;;;;;-140.72;100.00;52494.34;4990982;28;19925;-72
2023/07/13 05:11:48;;;;;;;;;;;;;;;-140.72;100.00;52506.53;4994658;28;20291;-72
2023/07/13 05:14:13;;;;;;;;;;;;;;;-140.72;100.00;52508.56;4994199;28;20361;-71
2023/07/13 05:16:39;;;;;;;;;;;;;;;-140.72;100.00;52461.88;4987534;28;20541;-72
2023/07/13 05:19:04;;;;;;;;;;;;;;;-140.72;100.00;52498.41;4972648;28;19965;-72
2023/07/13 05:21:30;;;;;;;;;;;;;;;-140.72;100.00;52455.78;4989476;28;19929;-72
2023/07/13 05:23:56;;;;;;;;;;;;;;;-140.72;100.00;52472.03;4982014;28;20001;-72
2023/07/13 05:26:21;;;;;;;;;;;;;;;-140.72;100.00;52476.09;4986828;28;19926;-73
2023/07/13 05:28:47;;;;;;;;;;;;;;;-140.72;100.00;52472.03;4989370;28;20379;-72
2023/07/13 05:31:13;;;;;;;;;;;;;;;-140.72;100.00;52504.50;4988362;28;19944;-72
2023/07/13 05:33:39;;;;;;;;;;;;;;;-140.72;100.00;52484.19;4994164;28;19922;-72
2023/07/13 05:36:04;;;;;;;;;;;;;;;-140.72;100.00;52524.78;4975244;28;19929;-72
2023/07/13 05:38:32;;;;;;;;;;;;;;;-140.72;100.00;52500.44;4993522;28;19922;-72
2023/07/13 05:40:57;;;;;;;;;;;;;;;-140.72;100.00;52524.78;4979179;28;19993;-72
2023/07/13 05:43:23;;;;;;;;;;;;;;;-140.72;100.00;52465.94;4989515;28;19922;-72
2023/07/13 05:45:49;;;;;;;;;;;;;;;-140.72;100.00;52486.22;4989280;28;20307;-73
2023/07/13 05:48:15;;;;;;;;;;;;;;;-140.72;100.00;52463.91;4991835;28;19929;-71
2023/07/13 05:50:42;;;;;;;;;;;;;;;-140.72;100.00;52470.00;4995011;28;19933;-71
2023/07/13 05:53:07;;;;;;;;;;;;;;;-140.72;100.00;52467.97;4975613;28;19921;-70
2023/07/13 05:55:33;;;;;;;;;;;;;;;-140.72;100.00;52457.81;4984144;28;19938;-70
2023/07/13 05:57:59;;;;;;;;;;;;;;;-140.72;100.00;52504.50;4981361;28;19940;-70
2023/07/13 06:00:25;;;;;;;;;;;;;;;-140.72;100.00;52482.16;4993500;28;19957;-70
2023/07/13 06:02:50;;;;;;;;;;;;;;;-140.72;100.00;52484.19;4980153;28;19973;-70
2023/07/13 06:05:16;;;;;;;;;;;;;;;-140.72;100.00;52516.66;4992824;28;19918;-70
2023/07/13 06:07:41;;;;;;;;;;;;;;;-140.72;100.00;52541.03;4990463;28;19930;-69
2023/07/13 06:10:07;;;;;;;;;;;;;;;-140.72;100.00;52545.06;4990901;28;20435;-69
2023/07/13 06:12:32;;;;;;;;;;;;;;;-140.72;100.00;52561.31;4992055;28;20084;-70
2023/07/13 06:14:57;;;;;;;;;;;;;;;-140.72;100.00;52585.66;4964597;28;20333;-69
2023/07/13 06:17:23;;;;;;;;;;;;;;;-140.72;100.00;52589.72;4974570;28;19957;-69
2023/07/13 06:19:48;;;;;;;;;;;;;;;-140.72;100.00;52573.50;4992108;28;20019;-69
2023/07/13 06:22:13;;;;;;;;;;;;;;;-140.72;100.00;52573.50;4988418;28;20300;-69
2023/07/13 06:24:39;;;;;;;;;;;;;;;-140.72;100.00;52565.38;4983383;28;19950;-69
2023/07/13 06:27:04;;;;;;;;;;;;;;;-140.72;100.00;52575.50;4989619;28;19996;-69
2023/07/13 06:29:29;;;;;;;;;;;;;;;-140.72;100.00;52577.53;4982515;28;19985;-68
2023/07/13 06:31:55;;;;;;;;;;;;;;;-140.72;100.00;52583.63;4989141;28;20415;-69
2023/07/13 06:34:20;;;;;;;;;;;;;;;-140.72;100.00;52573.50;4984309;28;20316;-71
2023/07/13 06:36:45;;;;;;;;;;;;;;;-140.72;100.00;52573.50;4989428;28;20295;-73
2023/07/13 06:39:11;;;;;;;;;;;;;;;-140.72;100.00;52597.84;4974935;28;19922;-72
2023/07/13 06:41:36;;;;;;;;;;;;;;;-140.72;100.00;52597.84;4992453;28;19921;-71
2023/07/13 06:44:01;;;;;;;;;;;;;;;-140.72;100.00;52601.91;4992491;28;19956;-71
2023/07/13 06:46:28;;;;;;;;;;;;;;;-140.72;100.00;52567.41;4993262;28;19918;-71
2023/07/13 06:48:53;;;;;;;;;;;;;;;-140.72;100.00;52565.38;4980328;28;19921;-71
2023/07/13 06:51:19;;;;;;;;;;;;;;;-140.72;100.00;52563.34;4976946;28;20273;-72
2023/07/13 06:53:44;;;;;;;;;;;;;;;-140.72;100.00;52526.81;4968997;28;19925;-72
2023/07/13 06:56:10;;;;;;;;;;;;;;;-140.72;100.00;52549.13;4984053;28;19972;-72
2023/07/13 06:58:36;;;;;;;;;;;;;;;-140.72;100.00;52597.84;4976563;28;20365;-69
2023/07/13 07:01:01;;;;;;;;;;;;;;;-140.72;100.00;52532.91;4965382;28;20009;-69
2023/07/13 07:03:27;;;;;;;;;;;;;;;-140.72;100.00;52532.91;4976795;28;19919;-69
2023/07/13 07:05:53;;;;;;;;;;;;;;;-140.72;100.00;52494.34;4985114;28;19918;-69
2023/07/13 07:08:20;;;;;;;;;;;;;;;-140.72;100.00;52520.72;4989467;28;19969;-70
2023/07/13 07:10:53;;;;;;;;;;;;;;;-140.72;100.00;52490.28;4995134;28;20334;-70
2023/07/13 07:13:19;;;;;;;;;;;;;;;-140.72;100.00;52492.31;5003631;28;19918;-69
2023/07/13 07:15:44;;;;;;;;;;;;;;;-140.72;100.00;52457.81;4994922;28;20352;-69
2023/07/13 07:18:09;;;;;;;;;;;;;;;-140.72;100.00;52520.72;4995705;28;19972;-70
2023/07/13 07:20:34;;;;;;;;;;;;;;;-140.72;100.00;52508.56;4993210;28;19922;-68
2023/07/13 07:23:00;;;;;;;;;;;;;;;-140.72;100.00;52474.06;4995257;28;19928;-68
2023/07/13 07:25:25;;;;;;;;;;;;;;;-140.72;100.00;52437.53;4994396;28;19980;-68
2023/07/13 07:27:50;;;;;;;;;;;;;;;-140.72;100.00;52449.72;4994383;28;20004;-68
2023/07/13 07:30:16;;;;;;;;;;;;;;;-140.72;100.00;52476.09;4980236;28;20304;-68
2023/07/13 07:32:41;;;;;;;;;;;;;;;-140.72;100.00;52490.28;4963676;28;19918;-71
2023/07/13 07:35:07;;;;;;;;;;;;;;;-140.72;100.00;52478.13;4988700;28;20397;-70
2023/07/13 07:37:32;;;;;;;;;;;;;;;-140.72;100.00;52486.22;4985713;28;19921;-71
2023/07/13 07:39:59;;;;;;;;;;;;;;;-140.72;100.00;52463.91;4981504;28;20475;-71
2023/07/13 07:42:24;;;;;;;;;;;;;;;-140.72;100.00;52530.88;4986536;28;19969;-70
2023/07/13 07:44:49;;;;;;;;;;;;;;;-140.72;100.00;52536.97;4975358;28;19918;-70
2023/07/13 07:47:15;;;;;;;;;;;;;;;-140.72;100.00;52547.09;4977690;28;19990;-70
2023/07/13 07:49:40;;;;;;;;;;;;;;;-140.72;100.00;52500.44;4978880;28;19925;-70
2023/07/13 07:52:06;;;;;;;;;;;;;;;-140.72;100.00;52498.41;4985838;28;20380;-70
2023/07/13 07:54:31;;;;;;;;;;;;;;;-140.72;100.00;52500.44;4994967;28;20004;-71
2023/07/13 07:56:56;;;;;;;;;;;;;;;-140.72;100.00;52463.91;4993885;28;19926;-70
2023/07/13 07:59:21;;;;;;;;;;;;;;;-140.72;100.00;52484.19;4990862;28;20370;-70
2023/07/13 08:01:50;;;;;;;;;;;;;;;-140.72;100.00;52500.44;4988763;28;20403;-70
2023/07/13 08:04:15;;;;;;;;;;;;;;;-140.72;100.00;52433.47;4986422;28;19918;-70
2023/07/13 08:06:40;;;;;;;;;;;;;;;-140.72;100.00;52467.97;4971043;28;20831;-70
2023/07/13 08:09:06;;;;;;;;;;;;;;;-140.72;100.00;52407.09;4999861;28;19933;-70
2023/07/13 08:11:31;;;;;;;;;;;;;;;-140.72;100.00;52401.00;4988671;28;19932;-70
2023/07/13 08:13:56;;;;;;;;;;;;;;;-140.72;100.00;52431.44;4972596;28;20303;-70
2023/07/13 08:16:22;;;;;;;;;;;;;;;-140.72;100.00;52470.00;4985470;28;19928;-70
2023/07/13 08:18:48;;;;;;;;;;;;;;;-140.72;100.00;52423.31;4986230;28;20001;-70
2023/07/13 08:21:13;;;;;;;;;;;;;;;-140.72;100.00;52435.50;4986470;28;19925;-70
2023/07/13 08:23:38;;;;;;;;;;;;;;;-140.72;100.00;52409.13;4993150;28;19922;-70
2023/07/13 08:26:04;;;;;;;;;;;;;;;-140.72;100.00;52396.94;4994604;28;19922;-71
2023/07/13 08:28:30;;;;;;;;;;;;;;;-140.72;100.00;52388.84;4972986;28;19925;-70
2023/07/13 08:31:00;;;;;;;;;;;;;;;-140.72;100.00;52407.09;4986780;28;19992;-71
2023/07/13 08:33:25;;;;;;;;;;;;;;;-140.72;100.00;52390.84;4977507;28;19925;-71
2023/07/13 08:35:51;;;;;;;;;;;;;;;-140.72;100.00;52423.31;4998917;28;19926;-73
2023/07/13 08:38:16;;;;;;;;;;;;;;;-140.72;100.00;52465.94;4990133;28;20356;-71
2023/07/13 08:40:43;;;;;;;;;;;;;;;-140.72;100.00;52530.88;4984416;28;19922;-70
2023/07/13 08:43:18;;;;;;;;;;;;;;;-140.72;100.00;52547.09;4990923;28;19926;-70
2023/07/13 08:46:04;;;;;;;;;;;;;;;-140.72;100.00;52506.53;4992161;28;20268;-71
2023/07/13 08:48:39;;;;;;;;;;;;;;;-140.72;100.00;52508.56;4987640;28;19925;-71
2023/07/13 08:51:25;;;;;;;;;;;;;;;-140.72;100.00;52561.31;4972206;28;20352;-71
2023/07/13 08:53:54;;;;;;;;;;;;;;;-140.72;100.00;52587.69;4966995;28;19918;-71
2023/07/13 08:56:21;;;;;;;;;;;;;;;-140.72;100.00;52536.97;4984468;28;20356;-70
2023/07/13 08:58:49;;;;;;;;;;;;;;;-140.72;100.00;52522.75;4984766;28;19928;-71
2023/07/13 09:01:23;;;;;;;;;;;;;;;-140.72;100.00;52536.97;4993593;28;20324;-71
2023/07/13 09:03:51;;;;;;;;;;;;;;;-140.72;100.00;52465.94;4981237;28;20021;-71
2023/07/13 09:06:17;;;;;;;;;;;;;;;-140.72;100.00;52423.31;4969000;28;19940;-71
2023/07/13 09:08:48;;;;;;;;;;;;;;;-140.72;100.00;52392.88;4983040;28;20005;-70
2023/07/13 09:11:26;;;;;;;;;;;;;;;-140.72;100.00;52394.91;4989449;28;19936;-70
2023/07/13 09:13:51;;;;;;;;;;;;;;;-140.72;100.00;52362.44;4988720;28;19925;-70
2023/07/13 09:16:17;;;;;;;;;;;;;;;-140.72;100.00;52374.63;4975282;28;19964;-70
2023/07/13 09:18:44;;;;;;;;;;;;;;;-140.72;100.00;52429.41;4971731;28;20009;-70
2023/07/13 09:21:18;;;;;;;;;;;;;;;-140.72;100.00;52480.16;4987551;28;19922;-70
2023/07/13 09:23:43;;;;;;;;;;;;;;;-140.72;100.00;52496.38;4990962;28;19968;-70
2023/07/13 09:26:20;;;;;;;;;;;;;;;-140.72;100.00;52528.84;4981188;28;19922;-70
2023/07/13 09:28:47;;;;;;;;;;;;;;;-140.72;100.00;52498.41;4992313;28;19922;-70
2023/07/13 09:31:17;;;;;;;;;;;;;;;-140.72;100.00;52480.16;4994886;28;19922;-71
2023/07/13 09:33:43;;;;;;;;;;;;;;;-140.72;100.00;52437.53;4993540;28;19972;-71
2023/07/13 09:36:24;;;;;;;;;;;;;;;-140.72;100.00;52484.19;4973928;28;19973;-70
2023/07/13 09:38:56;;;;;;;;;;;;;;;-140.72;100.00;52486.22;4982325;28;19989;-70
2023/07/13 09:41:27;;;;;;;;;;;;;;;-140.72;100.00;52508.56;4974381;28;19921;-71
2023/07/13 09:44:09;;;;;;;;;;;;;;;-140.72;100.00;52524.78;4975846;28;19941;-70
2023/07/13 09:46:34;;;;;;;;;;;;;;;-140.72;100.00;52506.53;4973317;28;20014;-71
2023/07/13 09:49:00;;;;;;;;;;;;;;;-140.72;100.00;52476.09;4984404;28;20333;-70
2023/07/13 09:51:25;;;;;;;;;;;;;;;-140.72;100.00;52449.72;4979332;28;20273;-70
2023/07/13 09:53:50;;;;;;;;;;;;;;;-140.72;100.00;52451.72;4990422;28;19922;-70
2023/07/13 09:56:20;;;;;;;;;;;;;;;-140.72;100.00;52431.44;4994842;28;19957;-70
2023/07/13 09:58:45;;;;;;;;;;;;;;;-140.72;100.00;52415.22;4975047;28;19930;-70
2023/07/13 10:01:11;;;;;;;;;;;;;;;-140.72;100.00;52354.34;4980406;28;20009;-70
2023/07/13 10:03:41;;;;;;;;;;;;;;;-140.72;100.00;52309.69;4989572;28;19973;-70
2023/07/13 10:06:12;;;;;;;;;;;;;;;-140.72;100.00;52354.34;4984696;28;20300;-70
2023/07/13 10:08:37;;;;;;;;;;;;;;;-140.72;100.00;52358.41;4985156;28;20021;-70
2023/07/13 10:11:33;;;;;;;;;;;;;;;-140.72;100.00;52407.09;4993774;28;20000;-70
2023/07/13 10:14:01;;;;;;;;;;;;;;;-140.72;100.00;52398.97;4959616;28;19976;-71
2023/07/13 10:16:32;;;;;;;;;;;;;;;-140.72;100.00;52409.13;4992067;28;19925;-71
2023/07/13 10:19:00;;;;;;;;;;;;;;;-140.72;100.00;52427.38;4987010;28;20004;-71
2023/07/13 10:21:28;;;;;;;;;;;;;;;-140.72;100.00;52356.38;4973613;28;19922;-70
2023/07/13 10:24:00;;;;;;;;;;;;;;;-140.72;100.00;52293.47;4986867;28;19971;-71
2023/07/13 10:26:29;;;;;;;;;;;;;;;-140.72;100.00;52228.53;4981002;28;20368;-70
2023/07/13 10:28:57;;;;;;;;;;;;;;;-140.72;43.67;52204.19;4981206;28;19932;-71
2023/07/13 10:31:23;;;;;;;;;;;;;;;-140.72;7.28;52220.41;4978685;28;20000;-71
2023/07/13 10:33:49;;;;;;;;;;;;;;;-140.72;0.00;52169.69;5000723;28;20017;-71
2023/07/13 10:36:17;;;;;;;;;;;;;;;-140.72;0.00;52196.06;4989282;28;19919;-72
2023/07/13 10:38:43;;;;;;;;;;;;;;;-140.72;0.00;52145.34;4993690;28;19921;-72
2023/07/13 10:41:14;;;;;;;;;;;;;;;-140.72;0.00;52202.16;5005930;28;20028;-72
2023/07/13 10:43:42;;;;;;;;;;;;;;;-140.72;0.00;52305.63;4985170;28;20283;-72
2023/07/13 10:46:09;;;;;;;;;;;;;;;-140.72;0.00;52386.81;4986725;28;19973;-72
2023/07/13 10:48:36;;;;;;;;;;;;;;;-140.72;0.00;52228.53;4994276;28;19925;-72
2023/07/13 10:51:03;;;;;;;;;;;;;;;-140.72;0.00;52169.69;4989810;28;19963;-72
2023/07/13 10:53:30;;;;;;;;;;;;;;;-140.72;0.00;52104.75;4979988;28;19917;-72
2023/07/13 10:56:12;;;;;;;;;;;;;;;-140.72;0.00;52112.88;4977648;28;19918;-72
2023/07/13 10:58:44;;;;;;;;;;;;;;;-140.72;0.00;52131.16;4990875;28;19918;-73
2023/07/13 11:01:09;;;;;;;;;;;;;;;-140.72;0.00;52171.72;4962619;28;20325;-72
2023/07/13 11:03:37;;;;;;;;;;;;;;;-140.72;0.00;52269.13;5002416;28;19917;-73
2023/07/13 11:06:08;;;;;;;;;;;;;;;-140.72;0.00;52192.00;4989779;28;19993;-72
2023/07/13 11:08:37;;;;;;;;;;;;;;;-140.72;0.00;52192.00;4990564;28;19924;-72
2023/07/13 11:11:02;;;;;;;;;;;;;;;-140.72;0.00;52139.25;5000151;28;19918;-73
2023/07/13 11:13:34;;;;;;;;;;;;;;;-140.72;0.00;52116.94;4977532;28;19977;-73
2023/07/13 11:15:59;;;;;;;;;;;;;;;-140.72;0.00;52269.13;4978990;28;19925;-73
2023/07/13 11:18:25;;;;;;;;;;;;;;;-140.72;0.00;52222.44;4992472;28;20355;-72
2023/07/13 11:20:50;;;;;;;;;;;;;;;-140.72;0.00;52131.16;4973863;28;19945;-73
2023/07/13 11:23:17;;;;;;;;;;;;;;;-140.72;0.00;52096.66;4993871;28;19918;-73
2023/07/13 11:25:43;;;;;;;;;;;;;;;-140.72;0.00;52070.28;4996238;28;20036;-74
2023/07/13 11:28:11;;;;;;;;;;;;;;;-140.72;0.00;52155.50;4993012;28;19972;-72
2023/07/13 11:30:59;;;;;;;;;;;;;;;-140.72;0.00;52293.47;4985919;28;20030;-71
2023/07/13 11:33:27;;;;;;;;;;;;;;;-140.72;0.00;52242.75;4965157;28;19973;-72
2023/07/13 11:36:06;;;;;;;;;;;;;;;-140.72;0.00;52159.56;4988592;28;19917;-72
2023/07/13 11:38:39;;;;;;;;;;;;;;;-140.72;0.00;52039.84;4987265;28;19926;-73
2023/07/13 11:41:07;;;;;;;;;;;;;;;-140.72;0.00;52066.22;4984724;28;19918;-74
2023/07/13 11:43:33;;;;;;;;;;;;;;;-140.72;0.00;52003.31;4989887;28;19918;-73
2023/07/13 11:46:11;;;;;;;;;;;;;;;-140.72;0.00;52145.34;4987111;28;19926;-73
2023/07/13 11:48:37;;;;;;;;;;;;;;;-140.72;0.00;52098.69;4993211;28;19922;-73
2023/07/13 11:51:04;;;;;;;;;;;;;;;-140.72;0.00;52031.72;4992349;28;19988;-72
2023/07/13 11:53:36;;;;;;;;;;;;;;;-140.72;0.00;52129.13;4990066;28;19921;-72
2023/07/13 11:56:01;;;;;;;;;;;;;;;-140.72;0.00;52100.72;4991940;28;19937;-72
2023/07/13 11:58:28;;;;;;;;;;;;;;;-140.72;0.00;52127.09;4998081;28;19918;-73
2023/07/13 12:00:55;;;;;;;;;;;;;;;-140.72;0.00;52139.25;4984005;28;19945;-72
2023/07/13 12:03:24;;;;;;;;;;;;;;;-140.72;0.00;52074.34;4992477;28;19917;-72
2023/07/13 12:06:03;;;;;;;;;;;;;;;-140.72;0.00;52200.13;4987911;28;19986;-72
2023/07/13 12:08:28;;;;;;;;;;;;;;;-140.72;0.00;52084.47;4977766;28;19949;-72
2023/07/13 12:10:58;;;;;;;;;;;;;;;-140.72;0.00;52066.22;4982511;28;20360;-72
2023/07/13 12:13:26;;;;;;;;;;;;;;;-140.72;0.00;52049.97;4999570;28;19990;-72
2023/07/13 12:15:51;;;;;;;;;;;;;;;-140.72;0.00;52021.56;4990547;28;19922;-72
2023/07/13 12:18:21;;;;;;;;;;;;;;;-140.72;0.00;51999.25;4983145;28;20311;-72
2023/07/13 12:20:47;;;;;;;;;;;;;;;-140.72;0.00;51989.13;4987333;28;19925;-73